sensor_id;sensor_type;location;lat;lon;timestamp;P1;durP1;ratioP1;P2;durP2;ratioP2
12896;SDS011;6516;35.028;32.372;2022-09-12T00:00:24;24.13;;;16.92;;
12896;SDS011;6516;35.028;32.372;2022-09-12T00:02:52;19.60;;;16.90;;
12896;SDS011;6516;35.028;32.372;2022-09-12T00:05:20;21.80;;;17.33;;
12896;SDS011;6516;35.028;32.372;2022-09-12T00:07:48;22.27;;;17.40;;
12896;SDS011;6516;35.028;32.372;2022-09-12T00:10:17;22.50;;;17.47;;
12896;SDS011;6516;35.028;32.372;2022-09-12T00:12:45;21.15;;;17.30;;
12896;SDS011;6516;35.028;32.372;2022-09-12T00:15:12;19.85;;;17.08;;
12896;SDS011;6516;35.028;32.372;2022-09-12T00:17:42;21.38;;;16.50;;
12896;SDS011;6516;35.028;32.372;2022-09-12T00:20:10;21.85;;;16.70;;
12896;SDS011;6516;35.028;32.372;2022-09-12T00:22:37;22.97;;;16.53;;
12896;SDS011;6516;35.028;32.372;2022-09-12T00:25:05;20.95;;;17.05;;
12896;SDS011;6516;35.028;32.372;2022-09-12T00:27:33;20.02;;;16.67;;
12896;SDS011;6516;35.028;32.372;2022-09-12T00:30:01;17.60;;;15.70;;
12896;SDS011;6516;35.028;32.372;2022-09-12T00:32:29;20.05;;;16.65;;
12896;SDS011;6516;35.028;32.372;2022-09-12T00:34:59;19.60;;;15.40;;
12896;SDS011;6516;35.028;32.372;2022-09-12T00:37:27;19.85;;;15.45;;
12896;SDS011;6516;35.028;32.372;2022-09-12T00:39:55;16.90;;;15.20;;
12896;SDS011;6516;35.028;32.372;2022-09-12T00:42:23;16.92;;;14.65;;
12896;SDS011;6516;35.028;32.372;2022-09-12T00:44:51;16.83;;;14.57;;
12896;SDS011;6516;35.028;32.372;2022-09-12T00:47:20;20.07;;;14.37;;
12896;SDS011;6516;35.028;32.372;2022-09-12T00:49:54;21.17;;;14.73;;
12896;SDS011;6516;35.028;32.372;2022-09-12T00:52:32;15.77;;;13.77;;
12896;SDS011;6516;35.028;32.372;2022-09-12T00:55:06;19.90;;;14.18;;
12896;SDS011;6516;35.028;32.372;2022-09-12T00:57:38;16.70;;;14.48;;
12896;SDS011;6516;35.028;32.372;2022-09-12T01:00:11;17.43;;;13.80;;
12896;SDS011;6516;35.028;32.372;2022-09-12T01:02:43;17.42;;;14.27;;
12896;SDS011;6516;35.028;32.372;2022-09-12T01:05:16;16.73;;;13.88;;
12896;SDS011;6516;35.028;32.372;2022-09-12T01:07:45;21.27;;;14.55;;
12896;SDS011;6516;35.028;32.372;2022-09-12T01:10:14;17.30;;;14.13;;
12896;SDS011;6516;35.028;32.372;2022-09-12T01:12:43;17.93;;;14.23;;
12896;SDS011;6516;35.028;32.372;2022-09-12T01:15:11;16.25;;;14.50;;
12896;SDS011;6516;35.028;32.372;2022-09-12T01:17:41;18.08;;;15.30;;
12896;SDS011;6516;35.028;32.372;2022-09-12T01:20:37;16.23;;;14.52;;
12896;SDS011;6516;35.028;32.372;2022-09-12T01:30:30;19.77;;;15.18;;
12896;SDS011;6516;35.028;32.372;2022-09-12T01:33:24;19.83;;;16.13;;
12896;SDS011;6516;35.028;32.372;2022-09-12T01:36:18;20.08;;;16.20;;
12896;SDS011;6516;35.028;32.372;2022-09-12T01:39:03;22.73;;;16.85;;
12896;SDS011;6516;35.028;32.372;2022-09-12T01:41:38;23.40;;;16.20;;
12896;SDS011;6516;35.028;32.372;2022-09-12T01:44:20;20.90;;;16.50;;
12896;SDS011;6516;35.028;32.372;2022-09-12T01:47:04;23.13;;;16.60;;
12896;SDS011;6516;35.028;32.372;2022-09-12T01:49:36;22.10;;;15.65;;
12896;SDS011;6516;35.028;32.372;2022-09-12T01:52:15;22.98;;;17.40;;
12896;SDS011;6516;35.028;32.372;2022-09-12T01:54:49;26.63;;;17.47;;
12896;SDS011;6516;35.028;32.372;2022-09-12T01:57:24;22.58;;;16.80;;
12896;SDS011;6516;35.028;32.372;2022-09-12T01:59:56;23.00;;;17.55;;
12896;SDS011;6516;35.028;32.372;2022-09-12T02:02:33;23.52;;;16.98;;
12896;SDS011;6516;35.028;32.372;2022-09-12T02:05:05;23.42;;;17.00;;
12896;SDS011;6516;35.028;32.372;2022-09-12T02:07:37;24.53;;;17.83;;
12896;SDS011;6516;35.028;32.372;2022-09-12T02:10:11;20.58;;;16.50;;
12896;SDS011;6516;35.028;32.372;2022-09-12T02:12:50;23.15;;;16.80;;
12896;SDS011;6516;35.028;32.372;2022-09-12T02:15:25;24.65;;;17.38;;
12896;SDS011;6516;35.028;32.372;2022-09-12T02:17:59;21.40;;;16.27;;
12896;SDS011;6516;35.028;32.372;2022-09-12T02:20:33;20.00;;;15.77;;
12896;SDS011;6516;35.028;32.372;2022-09-12T02:23:05;19.13;;;15.20;;
12896;SDS011;6516;35.028;32.372;2022-09-12T02:25:39;24.33;;;16.20;;
12896;SDS011;6516;35.028;32.372;2022-09-12T02:28:11;20.48;;;14.27;;
12896;SDS011;6516;35.028;32.372;2022-09-12T02:30:43;21.70;;;14.75;;
12896;SDS011;6516;35.028;32.372;2022-09-12T02:33:22;20.07;;;14.40;;
12896;SDS011;6516;35.028;32.372;2022-09-12T02:35:54;19.92;;;15.00;;
12896;SDS011;6516;35.028;32.372;2022-09-12T02:38:29;20.60;;;15.18;;
12896;SDS011;6516;35.028;32.372;2022-09-12T02:41:05;18.40;;;14.75;;
12896;SDS011;6516;35.028;32.372;2022-09-12T02:43:33;22.08;;;15.25;;
12896;SDS011;6516;35.028;32.372;2022-09-12T02:46:02;19.57;;;14.63;;
12896;SDS011;6516;35.028;32.372;2022-09-12T02:48:34;17.75;;;14.52;;
12896;SDS011;6516;35.028;32.372;2022-09-12T02:51:07;25.38;;;15.73;;
12896;SDS011;6516;35.028;32.372;2022-09-12T02:53:37;22.58;;;14.98;;
12896;SDS011;6516;35.028;32.372;2022-09-12T02:56:06;18.88;;;14.43;;
12896;SDS011;6516;35.028;32.372;2022-09-12T02:58:38;21.00;;;14.53;;
12896;SDS011;6516;35.028;32.372;2022-09-12T03:01:07;19.85;;;14.00;;
12896;SDS011;6516;35.028;32.372;2022-09-12T03:03:51;21.05;;;15.27;;
12896;SDS011;6516;35.028;32.372;2022-09-12T03:06:38;22.05;;;13.65;;
12896;SDS011;6516;35.028;32.372;2022-09-12T03:09:19;18.60;;;14.60;;
12896;SDS011;6516;35.028;32.372;2022-09-12T03:12:00;24.47;;;13.60;;
12896;SDS011;6516;35.028;32.372;2022-09-12T03:14:48;23.27;;;13.52;;
12896;SDS011;6516;35.028;32.372;2022-09-12T03:17:36;20.60;;;14.80;;
12896;SDS011;6516;35.028;32.372;2022-09-12T03:20:23;22.55;;;15.60;;
12896;SDS011;6516;35.028;32.372;2022-09-12T03:23:08;22.52;;;14.20;;
12896;SDS011;6516;35.028;32.372;2022-09-12T03:25:46;17.63;;;13.43;;
12896;SDS011;6516;35.028;32.372;2022-09-12T03:28:19;17.20;;;14.13;;
12896;SDS011;6516;35.028;32.372;2022-09-12T03:30:48;20.05;;;14.35;;
12896;SDS011;6516;35.028;32.372;2022-09-12T03:33:19;21.00;;;15.77;;
12896;SDS011;6516;35.028;32.372;2022-09-12T03:35:49;20.95;;;15.23;;
12896;SDS011;6516;35.028;32.372;2022-09-12T03:38:18;23.83;;;15.37;;
12896;SDS011;6516;35.028;32.372;2022-09-12T03:40:46;20.30;;;15.43;;
12896;SDS011;6516;35.028;32.372;2022-09-12T03:43:14;22.13;;;15.70;;
12896;SDS011;6516;35.028;32.372;2022-09-12T03:45:41;22.58;;;16.90;;
12896;SDS011;6516;35.028;32.372;2022-09-12T03:48:09;21.35;;;16.75;;
12896;SDS011;6516;35.028;32.372;2022-09-12T03:50:37;20.03;;;16.00;;
12896;SDS011;6516;35.028;32.372;2022-09-12T03:53:06;19.45;;;16.30;;
12896;SDS011;6516;35.028;32.372;2022-09-12T03:55:34;21.70;;;15.35;;
12896;SDS011;6516;35.028;32.372;2022-09-12T03:58:04;21.50;;;15.35;;
12896;SDS011;6516;35.028;32.372;2022-09-12T04:00:32;21.27;;;14.68;;
12896;SDS011;6516;35.028;32.372;2022-09-12T04:03:00;22.90;;;15.73;;
12896;SDS011;6516;35.028;32.372;2022-09-12T04:05:27;24.02;;;15.10;;
12896;SDS011;6516;35.028;32.372;2022-09-12T04:07:55;23.33;;;15.65;;
12896;SDS011;6516;35.028;32.372;2022-09-12T04:10:24;19.85;;;14.32;;
12896;SDS011;6516;35.028;32.372;2022-09-12T04:12:52;22.60;;;14.57;;
12896;SDS011;6516;35.028;32.372;2022-09-12T04:15:20;18.87;;;14.10;;
12896;SDS011;6516;35.028;32.372;2022-09-12T04:17:47;23.27;;;14.65;;
12896;SDS011;6516;35.028;32.372;2022-09-12T04:20:15;22.17;;;14.35;;
12896;SDS011;6516;35.028;32.372;2022-09-12T04:22:43;20.80;;;13.70;;
12896;SDS011;6516;35.028;32.372;2022-09-12T04:25:11;22.70;;;14.75;;
12896;SDS011;6516;35.028;32.372;2022-09-12T04:27:40;25.40;;;14.87;;
12896;SDS011;6516;35.028;32.372;2022-09-12T04:30:08;24.52;;;14.25;;
12896;SDS011;6516;35.028;32.372;2022-09-12T04:32:36;27.00;;;13.70;;
12896;SDS011;6516;35.028;32.372;2022-09-12T04:35:05;20.20;;;14.30;;
12896;SDS011;6516;35.028;32.372;2022-09-12T04:37:35;25.02;;;14.60;;
12896;SDS011;6516;35.028;32.372;2022-09-12T04:40:03;27.17;;;13.20;;
12896;SDS011;6516;35.028;32.372;2022-09-12T04:42:31;22.88;;;13.05;;
12896;SDS011;6516;35.028;32.372;2022-09-12T04:45:01;20.83;;;12.57;;
12896;SDS011;6516;35.028;32.372;2022-09-12T04:47:30;22.58;;;12.10;;
12896;SDS011;6516;35.028;32.372;2022-09-12T04:49:58;27.50;;;12.13;;
12896;SDS011;6516;35.028;32.372;2022-09-12T04:52:25;22.67;;;11.40;;
12896;SDS011;6516;35.028;32.372;2022-09-12T04:54:53;20.33;;;11.75;;
12896;SDS011;6516;35.028;32.372;2022-09-12T04:57:21;26.77;;;11.63;;
12896;SDS011;6516;35.028;32.372;2022-09-12T04:59:50;20.30;;;11.10;;
12896;SDS011;6516;35.028;32.372;2022-09-12T05:02:19;21.33;;;10.57;;
12896;SDS011;6516;35.028;32.372;2022-09-12T05:04:47;22.50;;;9.40;;
12896;SDS011;6516;35.028;32.372;2022-09-12T05:07:16;24.75;;;9.27;;
12896;SDS011;6516;35.028;32.372;2022-09-12T05:09:44;26.50;;;8.43;;
12896;SDS011;6516;35.028;32.372;2022-09-12T05:12:12;22.50;;;8.50;;
12896;SDS011;6516;35.028;32.372;2022-09-12T05:14:40;22.02;;;8.73;;
12896;SDS011;6516;35.028;32.372;2022-09-12T05:17:08;23.67;;;8.47;;
12896;SDS011;6516;35.028;32.372;2022-09-12T05:19:37;24.90;;;8.82;;
12896;SDS011;6516;35.028;32.372;2022-09-12T05:22:05;24.77;;;8.75;;
12896;SDS011;6516;35.028;32.372;2022-09-12T05:24:34;19.65;;;7.68;;
12896;SDS011;6516;35.028;32.372;2022-09-12T05:27:03;22.65;;;8.27;;
12896;SDS011;6516;35.028;32.372;2022-09-12T05:29:31;24.57;;;7.27;;
12896;SDS011;6516;35.028;32.372;2022-09-12T05:31:59;25.25;;;7.70;;
12896;SDS011;6516;35.028;32.372;2022-09-12T05:34:27;22.67;;;7.32;;
12896;SDS011;6516;35.028;32.372;2022-09-12T05:36:57;21.00;;;7.90;;
12896;SDS011;6516;35.028;32.372;2022-09-12T05:39:24;22.20;;;7.32;;
12896;SDS011;6516;35.028;32.372;2022-09-12T05:41:52;21.57;;;6.97;;
12896;SDS011;6516;35.028;32.372;2022-09-12T05:44:20;17.90;;;6.90;;
12896;SDS011;6516;35.028;32.372;2022-09-12T05:46:47;19.27;;;6.82;;
12896;SDS011;6516;35.028;32.372;2022-09-12T05:49:17;20.60;;;6.82;;
12896;SDS011;6516;35.028;32.372;2022-09-12T05:51:45;23.95;;;7.35;;
12896;SDS011;6516;35.028;32.372;2022-09-12T05:54:16;17.80;;;6.53;;
12896;SDS011;6516;35.028;32.372;2022-09-12T05:56:45;19.73;;;6.28;;
12896;SDS011;6516;35.028;32.372;2022-09-12T05:59:14;16.90;;;6.78;;
12896;SDS011;6516;35.028;32.372;2022-09-12T06:01:43;18.38;;;6.72;;
12896;SDS011;6516;35.028;32.372;2022-09-12T06:04:12;23.33;;;6.47;;
12896;SDS011;6516;35.028;32.372;2022-09-12T06:06:41;22.07;;;6.40;;
12896;SDS011;6516;35.028;32.372;2022-09-12T06:09:10;19.75;;;5.75;;
12896;SDS011;6516;35.028;32.372;2022-09-12T06:11:41;18.05;;;6.00;;
12896;SDS011;6516;35.028;32.372;2022-09-12T06:14:10;21.17;;;6.38;;
12896;SDS011;6516;35.028;32.372;2022-09-12T06:16:40;21.52;;;6.97;;
12896;SDS011;6516;35.028;32.372;2022-09-12T06:19:11;21.60;;;6.00;;
12896;SDS011;6516;35.028;32.372;2022-09-12T06:21:41;20.20;;;6.75;;
12896;SDS011;6516;35.028;32.372;2022-09-12T06:24:09;19.13;;;5.55;;
12896;SDS011;6516;35.028;32.372;2022-09-12T06:26:37;15.70;;;5.43;;
12896;SDS011;6516;35.028;32.372;2022-09-12T06:29:07;13.20;;;5.32;;
12896;SDS011;6516;35.028;32.372;2022-09-12T06:31:38;10.43;;;4.40;;
12896;SDS011;6516;35.028;32.372;2022-09-12T06:34:08;13.50;;;4.60;;
12896;SDS011;6516;35.028;32.372;2022-09-12T06:36:38;16.20;;;4.68;;
12896;SDS011;6516;35.028;32.372;2022-09-12T06:39:09;13.02;;;4.45;;
12896;SDS011;6516;35.028;32.372;2022-09-12T06:41:38;16.92;;;5.25;;
12896;SDS011;6516;35.028;32.372;2022-09-12T06:44:08;15.13;;;4.70;;
12896;SDS011;6516;35.028;32.372;2022-09-12T06:46:38;11.95;;;4.85;;
12896;SDS011;6516;35.028;32.372;2022-09-12T06:49:06;15.63;;;4.78;;
12896;SDS011;6516;35.028;32.372;2022-09-12T06:51:34;13.75;;;4.65;;
12896;SDS011;6516;35.028;32.372;2022-09-12T06:54:02;13.02;;;4.85;;
12896;SDS011;6516;35.028;32.372;2022-09-12T06:56:30;11.47;;;4.97;;
12896;SDS011;6516;35.028;32.372;2022-09-12T06:58:58;14.35;;;5.10;;
12896;SDS011;6516;35.028;32.372;2022-09-12T07:01:28;14.48;;;5.00;;
12896;SDS011;6516;35.028;32.372;2022-09-12T07:03:57;12.02;;;4.75;;
12896;SDS011;6516;35.028;32.372;2022-09-12T07:06:27;14.25;;;5.10;;
12896;SDS011;6516;35.028;32.372;2022-09-12T07:08:57;15.73;;;5.57;;
12896;SDS011;6516;35.028;32.372;2022-09-12T07:11:26;16.35;;;5.00;;
12896;SDS011;6516;35.028;32.372;2022-09-12T07:13:56;15.30;;;5.13;;
12896;SDS011;6516;35.028;32.372;2022-09-12T07:16:26;17.02;;;5.15;;
12896;SDS011;6516;35.028;32.372;2022-09-12T07:18:55;15.00;;;5.35;;
12896;SDS011;6516;35.028;32.372;2022-09-12T07:21:26;16.30;;;5.20;;
12896;SDS011;6516;35.028;32.372;2022-09-12T07:23:56;18.30;;;5.35;;
12896;SDS011;6516;35.028;32.372;2022-09-12T07:26:25;18.35;;;5.68;;
12896;SDS011;6516;35.028;32.372;2022-09-12T07:28:54;15.32;;;5.10;;
12896;SDS011;6516;35.028;32.372;2022-09-12T07:31:24;18.95;;;5.28;;
12896;SDS011;6516;35.028;32.372;2022-09-12T07:33:54;21.40;;;5.30;;
12896;SDS011;6516;35.028;32.372;2022-09-12T07:36:23;17.33;;;5.43;;
12896;SDS011;6516;35.028;32.372;2022-09-12T07:38:55;20.70;;;4.65;;
12896;SDS011;6516;35.028;32.372;2022-09-12T07:41:24;17.98;;;4.43;;
12896;SDS011;6516;35.028;32.372;2022-09-12T07:43:54;15.20;;;5.53;;
12896;SDS011;6516;35.028;32.372;2022-09-12T07:46:25;13.80;;;5.10;;
12896;SDS011;6516;35.028;32.372;2022-09-12T07:48:57;12.57;;;4.97;;
12896;SDS011;6516;35.028;32.372;2022-09-12T07:51:26;18.60;;;4.97;;
12896;SDS011;6516;35.028;32.372;2022-09-12T07:53:56;14.80;;;5.30;;
12896;SDS011;6516;35.028;32.372;2022-09-12T07:56:24;13.32;;;5.28;;
12896;SDS011;6516;35.028;32.372;2022-09-12T07:58:54;18.67;;;5.27;;
12896;SDS011;6516;35.028;32.372;2022-09-12T08:01:22;18.95;;;5.45;;
12896;SDS011;6516;35.028;32.372;2022-09-12T08:03:54;13.48;;;5.28;;
12896;SDS011;6516;35.028;32.372;2022-09-12T08:06:24;23.08;;;5.10;;
12896;SDS011;6516;35.028;32.372;2022-09-12T08:08:55;25.27;;;5.72;;
12896;SDS011;6516;35.028;32.372;2022-09-12T08:11:24;23.93;;;5.30;;
12896;SDS011;6516;35.028;32.372;2022-09-12T08:13:58;15.80;;;4.70;;
12896;SDS011;6516;35.028;32.372;2022-09-12T08:16:28;21.70;;;5.05;;
12896;SDS011;6516;35.028;32.372;2022-09-12T08:19:00;23.35;;;5.20;;
12896;SDS011;6516;35.028;32.372;2022-09-12T08:21:29;20.50;;;4.55;;
12896;SDS011;6516;35.028;32.372;2022-09-12T08:23:58;14.97;;;4.83;;
12896;SDS011;6516;35.028;32.372;2022-09-12T08:26:29;20.17;;;5.30;;
12896;SDS011;6516;35.028;32.372;2022-09-12T08:28:58;17.40;;;5.15;;
12896;SDS011;6516;35.028;32.372;2022-09-12T08:31:29;16.50;;;4.85;;
12896;SDS011;6516;35.028;32.372;2022-09-12T08:34:02;21.38;;;4.78;;
12896;SDS011;6516;35.028;32.372;2022-09-12T08:36:32;16.37;;;4.70;;
12896;SDS011;6516;35.028;32.372;2022-09-12T08:39:02;21.10;;;4.75;;
12896;SDS011;6516;35.028;32.372;2022-09-12T08:41:32;20.08;;;4.22;;
12896;SDS011;6516;35.028;32.372;2022-09-12T08:44:10;20.38;;;4.85;;
12896;SDS011;6516;35.028;32.372;2022-09-12T08:47:18;19.92;;;4.97;;
12896;SDS011;6516;35.028;32.372;2022-09-12T08:50:03;19.13;;;4.93;;
12896;SDS011;6516;35.028;32.372;2022-09-12T08:52:43;25.13;;;5.03;;
12896;SDS011;6516;35.028;32.372;2022-09-12T08:55:23;21.05;;;4.65;;
12896;SDS011;6516;35.028;32.372;2022-09-12T08:57:57;20.10;;;4.88;;
12896;SDS011;6516;35.028;32.372;2022-09-12T09:00:26;17.38;;;4.22;;
12896;SDS011;6516;35.028;32.372;2022-09-12T09:06:22;20.55;;;5.05;;
12896;SDS011;6516;35.028;32.372;2022-09-12T09:09:13;19.77;;;4.70;;
12896;SDS011;6516;35.028;32.372;2022-09-12T09:11:52;19.90;;;4.60;;
12896;SDS011;6516;35.028;32.372;2022-09-12T09:14:39;22.17;;;4.88;;
12896;SDS011;6516;35.028;32.372;2022-09-12T09:17:21;19.53;;;4.80;;
12896;SDS011;6516;35.028;32.372;2022-09-12T09:19:55;24.13;;;5.82;;
12896;SDS011;6516;35.028;32.372;2022-09-12T09:22:33;23.33;;;5.30;;
12896;SDS011;6516;35.028;32.372;2022-09-12T09:25:09;18.88;;;5.05;;
12896;SDS011;6516;35.028;32.372;2022-09-12T09:27:44;17.73;;;4.55;;
12896;SDS011;6516;35.028;32.372;2022-09-12T09:30:18;22.77;;;4.53;;
12896;SDS011;6516;35.028;32.372;2022-09-12T09:32:48;27.08;;;5.00;;
12896;SDS011;6516;35.028;32.372;2022-09-12T09:35:20;19.85;;;5.03;;
12896;SDS011;6516;35.028;32.372;2022-09-12T09:38:01;22.75;;;4.82;;
12896;SDS011;6516;35.028;32.372;2022-09-12T09:40:44;20.80;;;5.30;;
12896;SDS011;6516;35.028;32.372;2022-09-12T09:43:24;20.23;;;4.73;;
12896;SDS011;6516;35.028;32.372;2022-09-12T09:45:53;19.38;;;4.47;;
12896;SDS011;6516;35.028;32.372;2022-09-12T09:48:24;22.77;;;5.28;;
12896;SDS011;6516;35.028;32.372;2022-09-12T09:50:56;20.10;;;4.72;;
12896;SDS011;6516;35.028;32.372;2022-09-12T09:53:31;17.95;;;4.75;;
12896;SDS011;6516;35.028;32.372;2022-09-12T09:56:07;20.63;;;4.57;;
12896;SDS011;6516;35.028;32.372;2022-09-12T09:58:42;18.35;;;4.60;;
12896;SDS011;6516;35.028;32.372;2022-09-12T10:01:11;21.05;;;5.03;;
12896;SDS011;6516;35.028;32.372;2022-09-12T10:03:46;19.40;;;4.78;;
12896;SDS011;6516;35.028;32.372;2022-09-12T10:06:24;21.80;;;5.13;;
12896;SDS011;6516;35.028;32.372;2022-09-12T10:09:06;18.77;;;4.87;;
12896;SDS011;6516;35.028;32.372;2022-09-12T10:11:46;21.27;;;4.93;;
12896;SDS011;6516;35.028;32.372;2022-09-12T10:17:22;20.05;;;5.07;;
12896;SDS011;6516;35.028;32.372;2022-09-12T10:19:53;19.45;;;5.47;;
12896;SDS011;6516;35.028;32.372;2022-09-12T10:22:22;22.00;;;5.73;;
12896;SDS011;6516;35.028;32.372;2022-09-12T10:24:55;25.58;;;6.20;;
12896;SDS011;6516;35.028;32.372;2022-09-12T10:27:27;24.10;;;5.88;;
12896;SDS011;6516;35.028;32.372;2022-09-12T10:29:59;17.67;;;4.80;;
12896;SDS011;6516;35.028;32.372;2022-09-12T10:32:32;21.52;;;5.72;;
12896;SDS011;6516;35.028;32.372;2022-09-12T10:35:04;28.90;;;5.80;;
12896;SDS011;6516;35.028;32.372;2022-09-12T10:37:49;23.85;;;5.55;;
12896;SDS011;6516;35.028;32.372;2022-09-12T10:40:22;20.77;;;5.57;;
12896;SDS011;6516;35.028;32.372;2022-09-12T10:42:53;21.02;;;5.38;;
12896;SDS011;6516;35.028;32.372;2022-09-12T10:45:24;20.83;;;6.18;;
12896;SDS011;6516;35.028;32.372;2022-09-12T10:47:55;21.87;;;6.00;;
12896;SDS011;6516;35.028;32.372;2022-09-12T10:50:25;23.35;;;5.85;;
12896;SDS011;6516;35.028;32.372;2022-09-12T10:53:12;18.88;;;5.82;;
12896;SDS011;6516;35.028;32.372;2022-09-12T10:55:51;19.85;;;5.35;;
12896;SDS011;6516;35.028;32.372;2022-09-12T10:58:43;17.80;;;5.28;;
12896;SDS011;6516;35.028;32.372;2022-09-12T11:01:39;18.07;;;4.80;;
12896;SDS011;6516;35.028;32.372;2022-09-12T11:04:17;20.70;;;6.10;;
12896;SDS011;6516;35.028;32.372;2022-09-12T11:07:06;19.10;;;5.35;;
12896;SDS011;6516;35.028;32.372;2022-09-12T11:09:56;24.88;;;5.60;;
12896;SDS011;6516;35.028;32.372;2022-09-12T11:12:42;20.50;;;5.30;;
12896;SDS011;6516;35.028;32.372;2022-09-12T11:15:24;22.30;;;5.30;;
12896;SDS011;6516;35.028;32.372;2022-09-12T11:18:25;23.55;;;6.35;;
12896;SDS011;6516;35.028;32.372;2022-09-12T11:21:13;20.92;;;6.20;;
12896;SDS011;6516;35.028;32.372;2022-09-12T11:24:01;23.65;;;5.38;;
12896;SDS011;6516;35.028;32.372;2022-09-12T11:27:00;17.55;;;5.47;;
12896;SDS011;6516;35.028;32.372;2022-09-12T11:29:53;22.70;;;6.40;;
12896;SDS011;6516;35.028;32.372;2022-09-12T11:32:39;20.48;;;6.00;;
12896;SDS011;6516;35.028;32.372;2022-09-12T11:35:37;22.55;;;5.43;;
12896;SDS011;6516;35.028;32.372;2022-09-12T11:38:21;26.50;;;5.93;;
12896;SDS011;6516;35.028;32.372;2022-09-12T11:41:12;25.75;;;6.43;;
12896;SDS011;6516;35.028;32.372;2022-09-12T11:43:47;24.37;;;5.40;;
12896;SDS011;6516;35.028;32.372;2022-09-12T11:46:22;23.40;;;5.20;;
12896;SDS011;6516;35.028;32.372;2022-09-12T11:48:58;20.00;;;5.97;;
12896;SDS011;6516;35.028;32.372;2022-09-12T11:51:32;16.45;;;5.00;;
12896;SDS011;6516;35.028;32.372;2022-09-12T11:54:11;19.67;;;5.80;;
12896;SDS011;6516;35.028;32.372;2022-09-12T11:56:47;21.90;;;5.57;;
12896;SDS011;6516;35.028;32.372;2022-09-12T11:59:26;21.67;;;5.82;;
12896;SDS011;6516;35.028;32.372;2022-09-12T12:02:02;19.42;;;5.32;;
12896;SDS011;6516;35.028;32.372;2022-09-12T12:04:39;22.33;;;6.10;;
12896;SDS011;6516;35.028;32.372;2022-09-12T12:07:14;22.25;;;4.80;;
12896;SDS011;6516;35.028;32.372;2022-09-12T12:09:46;20.77;;;5.40;;
12896;SDS011;6516;35.028;32.372;2022-09-12T12:12:18;24.45;;;6.10;;
12896;SDS011;6516;35.028;32.372;2022-09-12T12:14:51;25.17;;;5.43;;
12896;SDS011;6516;35.028;32.372;2022-09-12T12:17:23;20.38;;;5.30;;
12896;SDS011;6516;35.028;32.372;2022-09-12T12:19:57;19.20;;;5.05;;
12896;SDS011;6516;35.028;32.372;2022-09-12T12:22:27;22.63;;;4.83;;
12896;SDS011;6516;35.028;32.372;2022-09-12T12:25:04;20.83;;;5.07;;
12896;SDS011;6516;35.028;32.372;2022-09-12T12:27:51;21.55;;;4.53;;
12896;SDS011;6516;35.028;32.372;2022-09-12T12:36:29;18.57;;;4.57;;
12896;SDS011;6516;35.028;32.372;2022-09-12T12:46:07;18.55;;;5.10;;
12896;SDS011;6516;35.028;32.372;2022-09-12T12:48:48;20.02;;;5.13;;
12896;SDS011;6516;35.028;32.372;2022-09-12T12:51:56;27.23;;;5.27;;
12896;SDS011;6516;35.028;32.372;2022-09-12T12:54:31;19.20;;;4.88;;
12896;SDS011;6516;35.028;32.372;2022-09-12T12:57:16;22.45;;;5.53;;
12896;SDS011;6516;35.028;32.372;2022-09-12T12:59:53;20.38;;;5.60;;
12896;SDS011;6516;35.028;32.372;2022-09-12T13:02:26;17.58;;;4.65;;
12896;SDS011;6516;35.028;32.372;2022-09-12T13:05:01;25.60;;;5.30;;
12896;SDS011;6516;35.028;32.372;2022-09-12T13:07:33;24.20;;;5.10;;
12896;SDS011;6516;35.028;32.372;2022-09-12T13:10:05;23.33;;;5.18;;
12896;SDS011;6516;35.028;32.372;2022-09-12T13:12:34;18.92;;;5.55;;
12896;SDS011;6516;35.028;32.372;2022-09-12T13:18:15;19.67;;;5.40;;
12896;SDS011;6516;35.028;32.372;2022-09-12T13:20:54;19.67;;;5.10;;
12896;SDS011;6516;35.028;32.372;2022-09-12T13:23:33;21.13;;;5.13;;
12896;SDS011;6516;35.028;32.372;2022-09-12T13:26:02;21.77;;;5.72;;
12896;SDS011;6516;35.028;32.372;2022-09-12T13:28:37;21.90;;;5.63;;
12896;SDS011;6516;35.028;32.372;2022-09-12T13:31:07;24.80;;;5.37;;
12896;SDS011;6516;35.028;32.372;2022-09-12T13:33:44;22.10;;;5.45;;
12896;SDS011;6516;35.028;32.372;2022-09-12T13:39:34;20.80;;;5.05;;
12896;SDS011;6516;35.028;32.372;2022-09-12T13:42:33;21.40;;;5.18;;
12896;SDS011;6516;35.028;32.372;2022-09-12T13:45:10;23.90;;;5.70;;
12896;SDS011;6516;35.028;32.372;2022-09-12T13:47:42;24.00;;;6.10;;
12896;SDS011;6516;35.028;32.372;2022-09-12T13:50:13;23.75;;;5.05;;
12896;SDS011;6516;35.028;32.372;2022-09-12T13:52:47;22.67;;;5.18;;
12896;SDS011;6516;35.028;32.372;2022-09-12T13:55:28;20.05;;;5.15;;
12896;SDS011;6516;35.028;32.372;2022-09-12T13:57:59;17.87;;;4.67;;
12896;SDS011;6516;35.028;32.372;2022-09-12T14:00:29;23.65;;;5.22;;
12896;SDS011;6516;35.028;32.372;2022-09-12T14:02:59;21.98;;;5.00;;
12896;SDS011;6516;35.028;32.372;2022-09-12T14:05:45;24.10;;;5.00;;
12896;SDS011;6516;35.028;32.372;2022-09-12T14:08:24;25.27;;;5.30;;
12896;SDS011;6516;35.028;32.372;2022-09-12T14:10:52;18.60;;;5.10;;
12896;SDS011;6516;35.028;32.372;2022-09-12T14:13:21;24.08;;;5.28;;
12896;SDS011;6516;35.028;32.372;2022-09-12T14:15:52;17.17;;;5.10;;
12896;SDS011;6516;35.028;32.372;2022-09-12T14:18:24;23.73;;;5.85;;
12896;SDS011;6516;35.028;32.372;2022-09-12T14:20:54;24.27;;;5.45;;
12896;SDS011;6516;35.028;32.372;2022-09-12T14:23:27;21.90;;;5.87;;
12896;SDS011;6516;35.028;32.372;2022-09-12T14:25:57;19.42;;;5.68;;
12896;SDS011;6516;35.028;32.372;2022-09-12T14:28:30;19.77;;;5.82;;
12896;SDS011;6516;35.028;32.372;2022-09-12T14:31:02;19.10;;;5.30;;
12896;SDS011;6516;35.028;32.372;2022-09-12T14:33:44;24.15;;;5.50;;
12896;SDS011;6516;35.028;32.372;2022-09-12T14:36:17;26.23;;;5.37;;
12896;SDS011;6516;35.028;32.372;2022-09-12T14:38:52;23.90;;;5.57;;
12896;SDS011;6516;35.028;32.372;2022-09-12T14:41:23;24.85;;;5.80;;
12896;SDS011;6516;35.028;32.372;2022-09-12T14:43:55;20.15;;;5.88;;
12896;SDS011;6516;35.028;32.372;2022-09-12T14:46:29;19.75;;;5.78;;
12896;SDS011;6516;35.028;32.372;2022-09-12T14:49:01;23.27;;;6.20;;
12896;SDS011;6516;35.028;32.372;2022-09-12T14:51:35;22.83;;;5.65;;
12896;SDS011;6516;35.028;32.372;2022-09-12T14:54:20;27.52;;;6.50;;
12896;SDS011;6516;35.028;32.372;2022-09-12T15:00:20;18.83;;;6.05;;
12896;SDS011;6516;35.028;32.372;2022-09-12T15:02:51;24.03;;;6.13;;
12896;SDS011;6516;35.028;32.372;2022-09-12T15:05:21;25.95;;;6.22;;
12896;SDS011;6516;35.028;32.372;2022-09-12T15:07:52;23.48;;;5.97;;
12896;SDS011;6516;35.028;32.372;2022-09-12T15:10:26;22.30;;;5.95;;
12896;SDS011;6516;35.028;32.372;2022-09-12T15:15:48;24.07;;;6.27;;
12896;SDS011;6516;35.028;32.372;2022-09-12T15:18:22;24.40;;;6.57;;
12896;SDS011;6516;35.028;32.372;2022-09-12T15:20:52;26.63;;;6.40;;
12896;SDS011;6516;35.028;32.372;2022-09-12T15:23:26;26.08;;;6.60;;
12896;SDS011;6516;35.028;32.372;2022-09-12T15:26:01;16.80;;;5.90;;
12896;SDS011;6516;35.028;32.372;2022-09-12T15:28:29;22.97;;;6.03;;
12896;SDS011;6516;35.028;32.372;2022-09-12T15:31:00;19.73;;;6.90;;
12896;SDS011;6516;35.028;32.372;2022-09-12T15:33:36;18.05;;;6.50;;
12896;SDS011;6516;35.028;32.372;2022-09-12T15:36:04;26.27;;;6.25;;
12896;SDS011;6516;35.028;32.372;2022-09-12T15:38:41;21.58;;;6.25;;
12896;SDS011;6516;35.028;32.372;2022-09-12T15:41:12;22.03;;;6.73;;
12896;SDS011;6516;35.028;32.372;2022-09-12T15:43:43;19.15;;;5.88;;
12896;SDS011;6516;35.028;32.372;2022-09-12T15:46:13;18.42;;;6.10;;